Time;durP1;ratioP1;P1;durP2;ratioP2;P2;SDS_P1;SDS_P2;PMS_P1;PMS_P2;Temp;Humidity;BMP_temperature;BMP_pressure;BME280_temperature;BME280_humidity;BME280_pressure;Samples;Min_cycle;Max_cycle;Signal;HPM_P1;HPM_P2
2021/04/18 00:02:19;;;;;;;4.25;2.83;;;16.80;78.70;;;;;;4938556;28;95931;-50
2021/04/18 00:04:49;;;;;;;6.32;2.60;;;16.80;78.70;;;;;;4935837;28;95635;-50
2021/04/18 00:07:19;;;;;;;4.80;2.53;;;16.80;78.70;;;;;;4934068;28;96178;-50
2021/04/18 00:09:49;;;;;;;6.18;3.00;;;16.80;78.70;;;;;;4951479;28;96004;-49
2021/04/18 00:12:18;;;;;;;4.70;2.83;;;16.80;78.60;;;;;;4951063;28;95717;-51
2021/04/18 00:14:48;;;;;;;5.60;3.15;;;16.80;78.60;;;;;;4933689;28;95692;-52
2021/04/18 00:17:20;;;;;;;5.80;2.75;;;16.80;78.60;;;;;;4929804;28;96485;-50
2021/04/18 00:19:52;;;;;;;5.18;2.72;;;16.80;78.60;;;;;;4936624;28;95842;-50
2021/04/18 00:22:24;;;;;;;3.60;2.33;;;16.80;78.50;;;;;;4933763;28;95280;-50
2021/04/18 00:24:56;;;;;;;5.00;2.65;;;16.80;78.50;;;;;;4949752;28;95321;-49
2021/04/18 00:27:25;;;;;;;4.40;2.58;;;16.80;78.50;;;;;;4952984;28;95866;-50
2021/04/18 00:29:55;;;;;;;5.13;3.13;;;16.80;78.50;;;;;;4945015;28;95675;-49
2021/04/18 00:32:25;;;;;;;4.80;3.08;;;16.80;78.50;;;;;;4937930;28;95699;-48
2021/04/18 00:34:55;;;;;;;4.07;2.90;;;16.80;78.40;;;;;;4956786;28;95787;-51
2021/04/18 00:37:25;;;;;;;4.68;2.22;;;16.80;78.40;;;;;;4942722;28;95848;-50
2021/04/18 00:39:55;;;;;;;4.07;2.55;;;16.80;78.40;;;;;;4943952;28;95703;-50
2021/04/18 00:42:24;;;;;;;4.30;2.38;;;16.80;78.30;;;;;;4952695;28;95471;-50
2021/04/18 00:44:54;;;;;;;4.57;2.65;;;16.80;78.40;;;;;;4950201;28;95304;-51
2021/04/18 00:47:24;;;;;;;4.53;2.90;;;16.80;78.40;;;;;;4941833;28;97098;-50
2021/04/18 00:49:54;;;;;;;5.28;2.75;;;16.80;78.40;;;;;;4935815;28;95273;-49
2021/04/18 00:52:23;;;;;;;2.85;2.10;;;16.80;78.30;;;;;;4932857;28;95808;-49
2021/04/18 00:54:53;;;;;;;5.07;2.90;;;16.80;78.30;;;;;;4938873;28;95730;-50
2021/04/18 00:57:23;;;;;;;5.65;3.47;;;16.80;78.20;;;;;;4952281;28;95956;-51
2021/04/18 00:59:53;;;;;;;3.35;2.80;;;16.80;78.30;;;;;;4931823;28;97460;-49
2021/04/18 01:02:24;;;;;;;4.28;2.55;;;16.80;78.30;;;;;;4932638;28;95396;-49
2021/04/18 01:04:54;;;;;;;4.68;2.75;;;16.80;78.20;;;;;;4935639;28;95848;-51
2021/04/18 01:07:24;;;;;;;4.28;1.98;;;16.80;78.20;;;;;;4949911;28;96327;-51
2021/04/18 01:09:54;;;;;;;3.67;2.55;;;16.80;78.20;;;;;;4947672;28;96147;-49
2021/04/18 01:12:25;;;;;;;4.97;3.08;;;16.80;78.30;;;;;;4951032;28;95965;-49
2021/04/18 01:14:56;;;;;;;4.87;2.40;;;16.80;78.20;;;;;;4932426;28;95674;-48
2021/04/18 01:17:28;;;;;;;3.67;2.60;;;16.80;78.20;;;;;;4942321;28;99437;-49
2021/04/18 01:19:59;;;;;;;4.83;3.07;;;16.80;78.30;;;;;;4930517;28;95222;-51
2021/04/18 01:22:31;;;;;;;5.25;2.42;;;16.80;78.20;;;;;;4955282;28;95543;-52
2021/04/18 01:25:22;;;;;;;3.50;2.17;;;16.80;78.30;;;;;;4937596;28;100155;-50
2021/04/18 01:27:59;;;;;;;3.78;1.90;;;16.80;78.20;;;;;;4951558;28;97008;-50
2021/04/18 01:30:30;;;;;;;4.93;2.55;;;16.80;78.30;;;;;;4944924;28;99650;-51
2021/04/18 01:33:03;;;;;;;4.67;2.70;;;16.80;78.30;;;;;;4941989;28;95901;-51
2021/04/18 01:35:32;;;;;;;2.88;2.65;;;16.80;78.20;;;;;;4939089;28;95684;-50
2021/04/18 01:38:03;;;;;;;4.55;2.25;;;16.80;78.20;;;;;;4944087;28;96712;-48
2021/04/18 01:40:33;;;;;;;5.47;2.60;;;16.80;78.20;;;;;;4967595;28;96155;-48
2021/04/18 01:43:05;;;;;;;5.47;3.47;;;16.80;78.30;;;;;;4949256;28;95467;-49
2021/04/18 01:45:35;;;;;;;3.55;2.50;;;16.80;78.30;;;;;;4946028;28;95399;-50
2021/04/18 01:48:06;;;;;;;5.15;2.17;;;16.80;78.20;;;;;;4928303;28;98549;-49
2021/04/18 01:50:44;;;;;;;3.95;2.58;;;16.80;78.20;;;;;;4962695;28;95806;-49
2021/04/18 01:53:14;;;;;;;4.07;2.22;;;16.80;78.30;;;;;;4934602;28;95764;-49
2021/04/18 01:55:44;;;;;;;3.92;2.25;;;16.80;78.20;;;;;;4938351;28;95679;-49
2021/04/18 01:58:14;;;;;;;3.67;2.50;;;16.80;78.10;;;;;;4947961;28;96184;-51
2021/04/18 02:01:23;;;;;;;8.25;2.47;;;16.80;78.10;;;;;;4946787;28;95787;-50
2021/04/18 02:03:57;;;;;;;4.25;2.28;;;16.80;78.10;;;;;;4977718;28;96055;-48
2021/04/18 02:06:28;;;;;;;4.47;2.58;;;16.80;78.10;;;;;;4933779;28;96072;-51
2021/04/18 02:09:09;;;;;;;3.38;2.00;;;16.80;78.10;;;;;;4950173;28;98748;-50
2021/04/18 02:11:41;;;;;;;3.95;2.42;;;16.80;78.00;;;;;;4965968;28;96234;-49
2021/04/18 02:14:15;;;;;;;2.92;2.05;;;16.80;78.00;;;;;;4950667;28;95634;-48
2021/04/18 02:17:03;;;;;;;2.85;2.45;;;16.90;78.10;;;;;;4948529;28;95908;-48
2021/04/18 02:19:35;;;;;;;3.45;2.55;;;16.90;78.00;;;;;;4945112;28;96574;-51
2021/04/18 02:22:09;;;;;;;4.68;2.80;;;16.90;77.90;;;;;;4938310;28;98074;-49
2021/04/18 02:24:45;;;;;;;2.83;2.15;;;16.90;78.00;;;;;;4940193;28;95735;-48
2021/04/18 02:27:17;;;;;;;3.83;2.90;;;16.90;78.00;;;;;;4945120;28;95434;-50
2021/04/18 02:29:56;;;;;;;4.40;3.15;;;16.90;77.90;;;;;;4946233;28;96959;-49
2021/04/18 02:32:29;;;;;;;3.03;2.05;;;16.90;77.90;;;;;;4948497;28;96241;-49
2021/04/18 02:35:04;;;;;;;2.58;2.15;;;16.90;78.00;;;;;;4952399;28;95507;-49
2021/04/18 02:37:34;;;;;;;4.15;2.13;;;16.90;78.00;;;;;;4966296;28;95757;-53
2021/04/18 02:40:04;;;;;;;3.35;2.33;;;16.90;77.90;;;;;;4949798;28;96023;-49
2021/04/18 02:42:36;;;;;;;;;;;16.90;77.90;;;;;;4953568;28;96042;-51
2021/04/18 02:45:09;;;;;;;4.33;2.50;;;17.00;77.90;;;;;;4940432;28;95796;-50
2021/04/18 02:47:45;;;;;;;3.25;2.08;;;17.00;77.90;;;;;;4948546;28;95271;-50
2021/04/18 02:50:16;;;;;;;3.63;1.80;;;17.00;77.90;;;;;;4948342;28;96509;-49
2021/04/18 02:52:47;;;;;;;2.78;2.33;;;17.00;77.90;;;;;;4949984;28;95862;-54
2021/04/18 02:55:17;;;;;;;3.65;1.95;;;17.00;77.90;;;;;;4949685;28;95709;-48
2021/04/18 02:58:08;;;;;;;5.10;2.20;;;17.00;77.80;;;;;;4953184;28;95476;-48
2021/04/18 03:00:42;;;;;;;3.30;1.83;;;17.00;77.90;;;;;;4942267;28;96142;-48
2021/04/18 03:03:12;;;;;;;3.60;2.25;;;17.00;77.80;;;;;;4941904;28;95979;-52
2021/04/18 03:05:44;;;;;;;;;;;17.00;77.80;;;;;;4945993;28;95810;-48
2021/04/18 03:08:13;;;;;;;5.97;2.33;;;17.00;77.80;;;;;;4948169;28;95988;-51
2021/04/18 03:10:43;;;;;;;5.30;2.97;;;17.00;77.80;;;;;;4943306;28;97008;-49
2021/04/18 03:13:20;;;;;;;4.30;2.10;;;17.00;78.00;;;;;;4959187;28;97157;-52
2021/04/18 03:15:53;;;;;;;3.05;2.20;;;17.00;77.90;;;;;;4966616;28;96864;-50
2021/04/18 03:18:25;;;;;;;5.68;2.25;;;17.10;78.00;;;;;;4941362;28;95845;-50
2021/04/18 03:20:57;;;;;;;4.72;2.83;;;17.10;77.90;;;;;;4945329;28;96255;-50
2021/04/18 03:23:32;;;;;;;2.10;1.88;;;17.10;78.00;;;;;;4948298;28;97747;-52
2021/04/18 03:26:06;;;;;;;4.35;2.10;;;17.10;77.80;;;;;;4943779;28;95755;-50
2021/04/18 03:28:38;;;;;;;3.70;2.17;;;17.10;77.90;;;;;;4941230;28;95456;-50
2021/04/18 03:31:10;;;;;;;5.10;2.28;;;17.20;77.90;;;;;;4948591;28;95925;-50
2021/04/18 03:33:50;;;;;;;5.80;2.08;;;17.10;77.90;;;;;;4971792;28;97174;-52
2021/04/18 03:36:20;;;;;;;5.68;2.20;;;17.20;77.90;;;;;;4960533;28;95337;-53
2021/04/18 03:38:50;;;;;;;4.05;1.58;;;17.20;78.00;;;;;;4952066;28;95892;-52
2021/04/18 03:41:25;;;;;;;2.88;1.85;;;17.20;78.00;;;;;;4945835;28;98370;-53
2021/04/18 03:43:57;;;;;;;3.03;1.88;;;17.20;77.90;;;;;;4933814;28;95551;-52
2021/04/18 03:46:31;;;;;;;2.25;1.50;;;17.20;77.90;;;;;;4938144;28;95748;-50
2021/04/18 03:49:03;;;;;;;3.13;2.58;;;17.20;77.90;;;;;;4952374;28;95920;-51
2021/04/18 03:51:54;;;;;;;3.72;1.83;;;17.20;77.90;;;;;;4950396;28;95974;-52
2021/04/18 03:54:24;;;;;;;2.65;1.60;;;17.20;77.80;;;;;;4948008;28;97303;-50
2021/04/18 03:56:54;;;;;;;2.65;1.67;;;17.20;77.90;;;;;;4936624;28;95834;-53
2021/04/18 03:59:26;;;;;;;2.38;1.65;;;17.20;77.90;;;;;;4932343;28;95525;-52
2021/04/18 04:01:57;;;;;;;3.00;1.73;;;17.20;77.80;;;;;;4940931;28;95933;-52
2021/04/18 04:04:28;;;;;;;2.05;1.85;;;17.20;77.80;;;;;;4951494;28;95247;-51
2021/04/18 04:06:59;;;;;;;5.75;2.45;;;17.30;77.90;;;;;;4949367;28;95642;-52
2021/04/18 04:09:31;;;;;;;3.35;1.63;;;17.20;77.90;;;;;;4939456;28;95565;-50
2021/04/18 04:12:01;;;;;;;3.83;2.03;;;17.20;77.90;;;;;;4935304;28;96372;-53
2021/04/18 04:14:39;;;;;;;10.68;1.85;;;17.30;77.90;;;;;;4947383;28;95190;-52
2021/04/18 04:17:10;;;;;;;;;;;17.20;77.80;;;;;;4961706;28;95605;-50
2021/04/18 04:20:05;;;;;;;4.47;2.03;;;17.30;77.90;;;;;;4952657;28;95639;-51
2021/04/18 04:22:48;;;;;;;2.80;1.65;;;17.30;77.90;;;;;;4953546;28;98079;-53
2021/04/18 04:25:23;;;;;;;1.55;1.45;;;17.30;77.90;;;;;;4936052;28;95738;-54
2021/04/18 04:27:54;;;;;;;;;;;17.30;77.90;;;;;;4938170;28;95485;-51
2021/04/18 04:30:25;;;;;;;4.30;2.03;;;17.30;77.90;;;;;;4944136;28;95781;-51
2021/04/18 04:32:55;;;;;;;5.05;2.67;;;17.30;78.70;;;;;;4941218;28;102280;-53
2021/04/18 04:35:26;;;;;;;1.38;1.23;;;17.30;78.50;;;;;;4952719;28;95621;-52
2021/04/18 04:37:57;;;;;;;4.80;1.70;;;17.30;77.90;;;;;;4950207;28;95922;-52
2021/04/18 04:40:28;;;;;;;7.18;2.25;;;17.30;77.90;;;;;;4941439;28;95203;-50
2021/04/18 04:42:59;;;;;;;6.30;2.25;;;17.30;77.90;;;;;;4942455;28;98655;-53
2021/04/18 04:45:28;;;;;;;3.83;1.70;;;17.30;78.00;;;;;;4933656;28;95791;-53
2021/04/18 04:47:58;;;;;;;3.30;1.73;;;17.30;78.00;;;;;;4946314;28;95786;-52
2021/04/18 04:50:28;;;;;;;2.42;1.60;;;17.30;77.90;;;;;;4933241;28;95551;-54
2021/04/18 04:52:59;;;;;;;2.38;1.77;;;17.30;78.00;;;;;;4932811;28;95891;-51
2021/04/18 04:55:28;;;;;;;3.95;1.98;;;17.30;77.90;;;;;;4941616;28;95729;-51
2021/04/18 04:57:57;;;;;;;1.80;1.30;;;17.30;77.90;;;;;;4933023;28;95847;-52
2021/04/18 05:00:27;;;;;;;2.20;1.55;;;17.30;77.90;;;;;;4935222;28;95660;-52
2021/04/18 05:02:59;;;;;;;1.33;1.23;;;17.40;78.00;;;;;;4946998;28;98911;-50
2021/04/18 05:05:31;;;;;;;5.38;1.88;;;17.30;77.90;;;;;;4945541;28;95625;-52
2021/04/18 05:08:01;;;;;;;3.58;1.52;;;17.30;77.80;;;;;;4952506;28;95566;-49
2021/04/18 05:10:30;;;;;;;5.72;1.65;;;17.40;78.00;;;;;;4946981;28;95842;-53
2021/04/18 05:13:00;;;;;;;2.67;1.58;;;17.40;78.00;;;;;;4934776;28;95979;-53
2021/04/18 05:15:32;;;;;;;3.42;2.47;;;17.40;78.00;;;;;;4934523;28;95862;-50
2021/04/18 05:18:04;;;;;;;2.22;1.60;;;17.40;77.90;;;;;;4937432;28;95538;-52
2021/04/18 05:20:35;;;;;;;2.22;1.88;;;17.40;77.90;;;;;;4941661;28;96089;-51
2021/04/18 05:23:06;;;;;;;2.58;1.45;;;17.40;77.90;;;;;;4966890;28;95832;-51
2021/04/18 05:25:37;;;;;;;2.88;1.33;;;17.40;77.90;;;;;;4958185;28;95742;-52
2021/04/18 05:28:07;;;;;;;2.03;1.85;;;17.40;77.90;;;;;;4933497;28;95146;-53
2021/04/18 05:30:36;;;;;;;3.83;1.95;;;17.40;78.00;;;;;;4936080;28;95816;-51
2021/04/18 05:33:08;;;;;;;4.45;1.67;;;17.40;77.90;;;;;;4960648;28;95959;-52
2021/04/18 05:35:38;;;;;;;3.37;1.60;;;17.40;77.90;;;;;;4939677;28;95670;-53
2021/04/18 05:38:08;;;;;;;1.45;1.30;;;17.40;78.00;;;;;;4956042;28;95800;-50
2021/04/18 05:40:37;;;;;;;3.03;1.65;;;17.40;77.90;;;;;;4952957;28;95793;-52
2021/04/18 05:43:10;;;;;;;2.00;1.52;;;17.40;78.00;;;;;;4941290;28;95904;-51
2021/04/18 05:45:40;;;;;;;1.63;1.20;;;17.40;78.00;;;;;;4930660;28;98704;-50
2021/04/18 05:48:09;;;;;;;2.33;1.50;;;17.40;78.00;;;;;;4936909;28;95261;-52
2021/04/18 05:50:39;;;;;;;1.52;1.25;;;17.40;78.00;;;;;;4935890;28;95944;-52
2021/04/18 05:53:09;;;;;;;3.67;1.60;;;17.40;78.00;;;;;;4947751;28;95918;-50
2021/04/18 05:55:41;;;;;;;4.40;1.95;;;17.40;78.00;;;;;;4970955;28;95939;-50
2021/04/18 05:58:12;;;;;;;3.53;2.15;;;17.40;78.00;;;;;;4945412;28;96307;-53
2021/04/18 06:00:42;;;;;;;2.77;1.53;;;17.40;78.00;;;;;;4945188;28;95795;-51
2021/04/18 06:03:12;;;;;;;1.63;1.20;;;17.50;78.10;;;;;;4951310;28;96309;-51
2021/04/18 06:05:45;;;;;;;3.53;1.40;;;17.40;78.10;;;;;;4944406;28;95819;-52
2021/04/18 06:08:14;;;;;;;5.05;1.20;;;17.50;78.30;;;;;;4940662;28;95634;-51
2021/04/18 06:10:45;;;;;;;3.47;1.70;;;17.40;78.20;;;;;;4942763;28;95919;-52
2021/04/18 06:13:16;;;;;;;;;;;17.40;78.30;;;;;;4940921;28;96019;-52
2021/04/18 06:15:48;;;;;;;5.20;1.60;;;17.40;78.40;;;;;;4948792;28;95314;-53
2021/04/18 06:18:20;;;;;;;1.15;1.05;;;17.40;78.40;;;;;;4951235;28;96062;-53
2021/04/18 06:20:53;;;;;;;3.67;1.77;;;17.40;78.50;;;;;;4944736;28;96827;-52
2021/04/18 06:23:25;;;;;;;2.67;1.58;;;17.40;78.50;;;;;;4944683;28;98932;-51
2021/04/18 06:25:57;;;;;;;3.75;1.70;;;17.40;78.50;;;;;;4951348;28;95767;-48
2021/04/18 06:28:30;;;;;;;1.23;1.10;;;17.40;78.60;;;;;;4937174;28;95808;-53
2021/04/18 06:31:00;;;;;;;3.13;1.00;;;17.40;78.50;;;;;;4939301;28;95559;-54
2021/04/18 06:33:30;;;;;;;9.48;1.30;;;17.40;78.50;;;;;;4943594;28;95964;-52
2021/04/18 06:36:00;;;;;;;5.47;1.55;;;17.40;78.60;;;;;;4950662;28;95678;-52
2021/04/18 06:38:30;;;;;;;1.80;1.08;;;17.40;78.50;;;;;;4936722;28;95700;-51
2021/04/18 06:41:01;;;;;;;0.93;0.90;;;17.50;78.50;;;;;;4968212;28;95734;-50
2021/04/18 06:43:32;;;;;;;1.53;1.37;;;17.50;78.40;;;;;;4945160;28;96139;-53
2021/04/18 06:46:04;;;;;;;6.68;1.45;;;17.50;78.40;;;;;;4937027;28;95883;-51
2021/04/18 06:48:35;;;;;;;2.92;1.90;;;17.50;78.40;;;;;;4935336;28;101461;-52
2021/04/18 06:51:05;;;;;;;2.33;1.08;;;17.50;78.40;;;;;;4936080;28;95659;-52
2021/04/18 06:53:36;;;;;;;1.90;1.17;;;17.50;78.40;;;;;;4940986;28;95903;-53
2021/04/18 06:56:08;;;;;;;1.95;1.23;;;17.50;78.40;;;;;;4949771;28;95643;-50
2021/04/18 06:58:39;;;;;;;2.17;1.40;;;17.50;78.40;;;;;;4943825;28;96078;-50
2021/04/18 07:01:10;;;;;;;2.88;1.20;;;17.50;78.40;;;;;;4942679;28;95985;-51
2021/04/18 07:03:40;;;;;;;1.25;1.00;;;17.50;78.50;;;;;;4936672;28;95913;-51
2021/04/18 07:06:11;;;;;;;1.58;1.05;;;17.50;78.40;;;;;;4954462;28;95672;-53
2021/04/18 07:08:41;;;;;;;3.70;1.55;;;17.50;78.50;;;;;;4932930;28;95798;-52
2021/04/18 07:11:19;;;;;;;1.50;1.10;;;17.50;78.50;;;;;;4950583;28;95709;-51
2021/04/18 07:13:49;;;;;;;1.90;1.25;;;17.60;78.60;;;;;;4939666;28;96637;-52
2021/04/18 07:16:28;;;;;;;1.85;1.10;;;17.60;78.60;;;;;;4941374;28;95840;-51
2021/04/18 07:18:58;;;;;;;1.77;1.08;;;17.60;78.60;;;;;;4943753;28;95317;-51
2021/04/18 07:21:50;;;;;;;5.78;1.08;;;17.60;78.60;;;;;;4946004;28;95539;-50
2021/04/18 07:24:24;;;;;;;2.58;1.63;;;17.60;78.60;;;;;;4944185;28;95876;-52
2021/04/18 07:27:04;;;;;;;1.38;1.05;;;17.60;78.70;;;;;;4945077;28;95759;-51
2021/04/18 07:29:35;;;;;;;2.08;0.93;;;17.60;78.80;;;;;;4949914;28;95645;-51
2021/04/18 07:32:22;;;;;;;1.77;1.23;;;17.50;78.90;;;;;;4953669;28;95743;-50
2021/04/18 07:34:52;;;;;;;1.92;1.00;;;17.60;78.90;;;;;;4936092;28;96014;-53
2021/04/18 07:37:26;;;;;;;3.15;1.17;;;17.60;78.90;;;;;;4947786;28;95692;-54
2021/04/18 07:39:59;;;;;;;1.33;1.10;;;17.60;79.00;;;;;;4943924;28;95793;-52
2021/04/18 07:42:38;;;;;;;1.95;1.33;;;17.50;79.00;;;;;;4937362;28;95796;-52
2021/04/18 07:45:13;;;;;;;2.33;1.15;;;17.60;78.90;;;;;;4930118;28;101585;-54
2021/04/18 07:47:46;;;;;;;2.88;1.20;;;17.60;78.90;;;;;;4940393;28;101861;-52
2021/04/18 07:50:21;;;;;;;2.05;1.30;;;17.60;78.90;;;;;;4936578;28;96148;-53
2021/04/18 07:52:51;;;;;;;1.95;0.85;;;17.70;78.90;;;;;;4939191;28;97917;-54
2021/04/18 07:55:21;;;;;;;1.95;1.50;;;17.70;78.70;;;;;;4939273;28;95984;-58
2021/04/18 07:57:52;;;;;;;1.30;1.10;;;17.70;78.40;;;;;;4941211;28;97958;-55
2021/04/18 08:00:23;;;;;;;1.10;1.08;;;17.70;78.40;;;;;;4926007;28;96042;-56
2021/04/18 08:02:55;;;;;;;1.80;1.00;;;17.80;78.40;;;;;;4943543;28;96276;-55
2021/04/18 08:05:31;;;;;;;2.97;1.40;;;17.80;78.50;;;;;;4940398;28;96016;-53
2021/04/18 08:08:12;;;;;;;3.50;1.23;;;17.90;78.40;;;;;;4943115;28;95587;-54
2021/04/18 08:10:47;;;;;;;2.63;1.48;;;17.90;78.30;;;;;;4941931;28;95728;-53
2021/04/18 08:13:24;;;;;;;1.80;1.10;;;17.90;78.10;;;;;;4939865;28;95690;-55
2021/04/18 08:16:04;;;;;;;1.67;1.17;;;18.00;78.10;;;;;;4933009;28;95958;-52
2021/04/18 08:18:37;;;;;;;2.72;1.40;;;18.10;78.00;;;;;;4929750;28;95405;-58
2021/04/18 08:21:37;;;;;;;2.05;1.20;;;18.20;78.00;;;;;;4934905;28;95299;-59
2021/04/18 08:24:18;;;;;;;2.20;1.40;;;18.30;78.10;;;;;;4967921;28;97361;-55
2021/04/18 08:27:14;;;;;;;2.47;1.00;;;18.40;78.20;;;;;;4933790;28;96367;-58
2021/04/18 08:30:05;;;;;;;2.40;1.38;;;18.40;78.10;;;;;;4933057;28;95917;-57
2021/04/18 08:32:44;;;;;;;1.88;1.10;;;18.40;78.00;;;;;;4929495;28;95423;-55
2021/04/18 08:35:23;;;;;;;2.90;1.27;;;18.50;78.00;;;;;;4935009;28;96124;-59
2021/04/18 08:38:24;;;;;;;1.17;0.98;;;18.50;78.10;;;;;;4934616;28;95572;-58
2021/04/18 08:41:17;;;;;;;1.83;1.02;;;18.50;78.20;;;;;;4939526;28;95764;-56
2021/04/18 08:43:48;;;;;;;2.35;1.17;;;18.50;78.20;;;;;;4946492;28;95845;-59
2021/04/18 08:46:23;;;;;;;1.95;1.30;;;18.50;78.30;;;;;;4933028;28;95569;-58
2021/04/18 08:48:54;;;;;;;1.10;1.00;;;18.50;78.40;;;;;;4930283;28;95937;-57
2021/04/18 08:51:40;;;;;;;1.60;1.25;;;18.50;78.30;;;;;;4931670;28;95534;-58
2021/04/18 08:54:10;;;;;;;3.58;1.15;;;18.50;78.40;;;;;;4933278;28;95756;-57
2021/04/18 08:56:50;;;;;;;2.63;1.38;;;18.50;78.30;;;;;;4932545;28;95672;-58
2021/04/18 08:59:21;;;;;;;2.78;1.20;;;18.50;79.00;;;;;;4934531;28;95873;-57
2021/04/18 09:02:05;;;;;;;1.23;0.98;;;18.40;78.40;;;;;;4926958;28;96001;-58
2021/04/18 09:04:41;;;;;;;1.35;0.95;;;18.50;78.40;;;;;;4928514;28;95924;-57
2021/04/18 09:07:17;;;;;;;2.20;1.35;;;18.40;78.50;;;;;;4933451;28;95586;-57
2021/04/18 09:09:47;;;;;;;1.77;1.45;;;18.40;78.50;;;;;;4933277;28;97331;-56
2021/04/18 09:12:18;;;;;;;3.80;1.33;;;18.40;78.70;;;;;;4939899;28;95774;-57
2021/04/18 09:14:51;;;;;;;2.63;1.48;;;18.40;78.80;;;;;;4939467;28;95218;-59
2021/04/18 09:17:24;;;;;;;1.73;1.00;;;18.40;79.00;;;;;;4932776;28;95887;-56
2021/04/18 09:19:56;;;;;;;1.98;1.52;;;18.50;79.30;;;;;;4940868;28;96563;-56
2021/04/18 09:22:36;;;;;;;4.22;1.40;;;18.50;79.40;;;;;;4935361;28;95904;-56
2021/04/18 09:25:12;;;;;;;3.17;1.70;;;18.50;79.80;;;;;;4935226;28;95608;-55
2021/04/18 09:27:44;;;;;;;4.95;1.80;;;18.50;80.00;;;;;;4938386;28;96102;-53
2021/04/18 09:30:21;;;;;;;2.08;1.40;;;18.50;80.70;;;;;;4930563;28;96003;-57
2021/04/18 09:32:54;;;;;;;3.72;1.73;;;18.50;80.20;;;;;;4938980;28;102505;-56
2021/04/18 09:35:25;;;;;;;2.50;1.65;;;18.50;80.30;;;;;;4933361;28;95560;-57
2021/04/18 09:37:57;;;;;;;1.58;1.38;;;18.50;80.30;;;;;;4932153;28;95803;-57
2021/04/18 09:40:30;;;;;;;1.95;1.00;;;18.50;80.30;;;;;;4931338;28;95936;-51
2021/04/18 09:43:04;;;;;;;2.25;1.50;;;18.50;80.20;;;;;;4932081;28;95984;-56
2021/04/18 09:45:35;;;;;;;2.45;1.60;;;18.40;80.20;;;;;;4928771;28;95614;-52
2021/04/18 09:48:19;;;;;;;5.03;1.27;;;18.50;80.30;;;;;;4928982;28;95666;-56
2021/04/18 09:51:04;;;;;;;2.15;1.23;;;18.50;80.30;;;;;;4937418;28;95878;-50
2021/04/18 09:53:37;;;;;;;1.90;1.42;;;18.40;80.20;;;;;;4931963;28;95842;-57
2021/04/18 09:56:08;;;;;;;2.47;1.33;;;18.40;80.30;;;;;;4935317;28;96041;-53
2021/04/18 09:58:42;;;;;;;2.45;1.38;;;18.50;80.20;;;;;;4932542;28;95813;-55
2021/04/18 10:01:33;;;;;;;2.95;1.70;;;18.40;80.10;;;;;;4960911;28;95787;-57
2021/04/18 10:04:23;;;;;;;1.55;1.45;;;18.40;80.00;;;;;;4932594;28;96074;-51
2021/04/18 10:06:54;;;;;;;2.45;1.33;;;18.40;80.10;;;;;;4934080;28;95713;-56
2021/04/18 10:09:24;;;;;;;4.13;2.00;;;18.30;80.00;;;;;;4933954;28;95782;-50
2021/04/18 10:12:01;;;;;;;3.55;1.17;;;18.40;79.90;;;;;;4934563;28;95794;-52
2021/04/18 10:14:32;;;;;;;2.63;1.40;;;18.30;79.80;;;;;;4929526;28;96638;-57
2021/04/18 10:17:03;;;;;;;2.78;1.63;;;18.40;79.90;;;;;;4927229;28;95719;-49
2021/04/18 10:19:34;;;;;;;;;;;18.30;79.90;;;;;;4932092;28;95844;-50
2021/04/18 10:22:08;;;;;;;2.15;1.42;;;18.30;79.90;;;;;;4936014;28;95805;-50
2021/04/18 10:24:42;;;;;;;3.45;2.00;;;18.30;79.80;;;;;;4936730;28;95309;-52
2021/04/18 10:27:15;;;;;;;5.60;1.75;;;18.30;79.90;;;;;;4952042;28;95273;-50
2021/04/18 10:29:47;;;;;;;2.40;2.10;;;18.30;79.90;;;;;;4950350;28;96177;-53
2021/04/18 10:32:21;;;;;;;2.53;1.80;;;18.20;79.70;;;;;;4930066;28;97950;-54
2021/04/18 10:34:53;;;;;;;4.05;2.65;;;18.20;79.90;;;;;;4936739;28;95874;-52
2021/04/18 10:37:28;;;;;;;6.85;2.08;;;18.20;79.80;;;;;;4940460;28;96236;-51
2021/04/18 10:39:59;;;;;;;2.38;1.88;;;18.20;79.80;;;;;;4939060;28;95813;-52
2021/04/18 10:42:29;;;;;;;3.28;2.15;;;18.20;79.70;;;;;;4944953;28;95268;-54
2021/04/18 10:44:59;;;;;;;3.22;1.80;;;18.10;79.70;;;;;;4938869;28;95705;-56
2021/04/18 10:47:28;;;;;;;3.92;1.95;;;18.10;79.70;;;;;;4936233;28;96316;-51
2021/04/18 10:49:59;;;;;;;3.08;1.75;;;18.10;79.70;;;;;;4940742;28;95520;-54
2021/04/18 10:52:30;;;;;;;3.85;1.83;;;18.10;79.70;;;;;;4937070;28;96587;-52
2021/04/18 10:55:01;;;;;;;;;;;18.10;79.70;;;;;;4968718;28;95828;-55
2021/04/18 10:57:31;;;;;;;5.20;2.10;;;18.10;79.90;;;;;;4935765;28;95920;-55
2021/04/18 11:00:01;;;;;;;5.25;2.40;;;18.10;80.10;;;;;;4937651;28;95847;-56
2021/04/18 11:02:31;;;;;;;3.97;2.43;;;18.10;80.10;;;;;;4932148;28;96386;-55
2021/04/18 11:05:03;;;;;;;3.92;2.40;;;18.00;80.00;;;;;;4931594;28;95769;-55
2021/04/18 11:07:33;;;;;;;3.47;2.30;;;18.10;80.10;;;;;;4935038;28;95711;-52
2021/04/18 11:10:04;;;;;;;10.75;2.95;;;18.00;80.00;;;;;;4938260;28;96887;-56
2021/04/18 11:12:35;;;;;;;3.88;2.08;;;18.00;80.00;;;;;;4943740;28;95922;-54
2021/04/18 11:15:07;;;;;;;3.65;2.33;;;18.00;80.10;;;;;;4945462;28;96216;-52
2021/04/18 11:17:39;;;;;;;4.88;2.17;;;18.00;80.00;;;;;;4930550;28;95781;-55
2021/04/18 11:20:13;;;;;;;2.65;2.00;;;17.90;79.80;;;;;;4930967;28;95962;-55
2021/04/18 11:22:45;;;;;;;3.95;2.22;;;17.90;79.70;;;;;;4934010;28;95852;-55
2021/04/18 11:25:17;;;;;;;4.28;2.17;;;17.90;79.70;;;;;;4945014;28;95762;-54
2021/04/18 11:27:49;;;;;;;2.25;1.70;;;17.90;79.80;;;;;;4939836;28;96606;-55
2021/04/18 11:30:18;;;;;;;;;;;17.90;79.80;;;;;;4930902;28;95593;-53
2021/04/18 11:32:48;;;;;;;3.78;2.47;;;17.90;80.00;;;;;;4936317;28;95930;-55
2021/04/18 11:35:20;;;;;;;4.03;2.92;;;17.90;80.00;;;;;;4933192;28;95611;-53
2021/04/18 11:37:54;;;;;;;4.60;2.83;;;17.80;80.00;;;;;;4961930;28;95787;-54
2021/04/18 11:40:30;;;;;;;2.20;2.00;;;17.80;79.90;;;;;;4942599;28;96022;-55
2021/04/18 11:43:01;;;;;;;4.05;2.53;;;17.80;79.90;;;;;;4931753;28;96466;-55
2021/04/18 11:45:31;;;;;;;3.90;2.10;;;17.80;79.90;;;;;;4929575;28;95680;-54
2021/04/18 11:48:01;;;;;;;4.60;2.00;;;17.80;79.90;;;;;;4934798;28;95373;-55
2021/04/18 11:50:34;;;;;;;3.50;2.15;;;17.80;79.90;;;;;;4934432;28;95535;-55
2021/04/18 11:53:03;;;;;;;4.47;2.70;;;17.80;79.90;;;;;;4934989;28;97270;-52
2021/04/18 11:55:34;;;;;;;2.97;1.90;;;17.70;79.90;;;;;;4933668;28;95857;-53
2021/04/18 11:58:06;;;;;;;3.30;2.25;;;17.70;79.80;;;;;;4933557;28;95306;-55
2021/04/18 12:00:36;;;;;;;3.17;2.22;;;17.70;79.80;;;;;;4935926;28;95788;-53
2021/04/18 12:03:08;;;;;;;3.03;2.30;;;17.70;79.80;;;;;;4935555;28;95945;-53
2021/04/18 12:05:39;;;;;;;4.32;2.38;;;17.70;80.50;;;;;;4935980;28;95604;-55
2021/04/18 12:08:10;;;;;;;2.80;2.00;;;17.70;79.90;;;;;;4930306;28;95859;-55
2021/04/18 12:10:40;;;;;;;3.72;2.17;;;17.70;79.90;;;;;;4936778;28;95719;-55
2021/04/18 12:13:11;;;;;;;2.72;1.98;;;17.70;79.90;;;;;;4943230;28;95839;-55
2021/04/18 12:15:45;;;;;;;4.50;2.22;;;17.70;79.90;;;;;;4932779;28;95765;-54
2021/04/18 12:18:16;;;;;;;5.22;2.47;;;17.70;80.50;;;;;;4963792;28;95320;-55
2021/04/18 12:20:46;;;;;;;3.20;1.92;;;17.70;79.80;;;;;;4933435;28;95769;-53
2021/04/18 12:23:17;;;;;;;5.10;2.33;;;17.70;79.80;;;;;;4931483;28;96544;-55
2021/04/18 12:25:48;;;;;;;;;;;17.60;79.80;;;;;;4935505;28;95251;-53
2021/04/18 12:28:19;;;;;;;6.90;1.88;;;17.60;79.70;;;;;;4932382;28;95312;-55
2021/04/18 12:30:50;;;;;;;3.55;1.83;;;17.60;79.70;;;;;;4933038;28;95238;-56
2021/04/18 12:33:21;;;;;;;3.72;2.22;;;17.60;79.80;;;;;;4930684;28;95885;-54
2021/04/18 12:35:52;;;;;;;3.67;1.95;;;17.60;79.70;;;;;;4945476;28;97863;-55
2021/04/18 12:38:23;;;;;;;2.63;2.10;;;17.60;79.60;;;;;;4951274;28;95686;-56
2021/04/18 12:40:53;;;;;;;4.38;2.13;;;17.60;79.70;;;;;;4934429;28;95445;-53
2021/04/18 12:43:24;;;;;;;2.85;1.77;;;17.60;79.70;;;;;;4931235;28;95635;-53
2021/04/18 12:45:53;;;;;;;4.10;1.85;;;17.60;79.70;;;;;;4928549;28;95952;-55
2021/04/18 12:48:23;;;;;;;4.30;2.35;;;17.60;79.70;;;;;;4933033;28;95462;-53
2021/04/18 12:50:53;;;;;;;3.42;2.75;;;17.60;79.80;;;;;;4933528;28;95794;-49
2021/04/18 12:53:27;;;;;;;3.88;2.50;;;17.50;79.70;;;;;;4931199;28;95942;-54
2021/04/18 12:55:58;;;;;;;2.42;1.73;;;17.50;79.70;;;;;;4932034;28;95398;-54
2021/04/18 12:58:28;;;;;;;4.07;2.50;;;17.50;79.60;;;;;;4932476;28;95867;-53
2021/04/18 13:01:00;;;;;;;4.57;2.03;;;17.50;79.70;;;;;;4928966;28;95941;-55
2021/04/18 13:03:32;;;;;;;2.55;2.35;;;17.50;79.80;;;;;;4935608;28;95967;-53
2021/04/18 13:06:03;;;;;;;3.30;2.28;;;17.50;79.80;;;;;;4933827;28;95676;-56
2021/04/18 13:08:35;;;;;;;4.03;3.00;;;17.50;79.80;;;;;;4933037;28;97614;-51
2021/04/18 13:11:05;;;;;;;3.65;1.95;;;17.50;79.80;;;;;;4935585;28;96042;-53
2021/04/18 13:13:35;;;;;;;3.05;2.30;;;17.50;79.80;;;;;;4933432;28;95863;-54
2021/04/18 13:16:07;;;;;;;5.25;2.58;;;17.50;79.60;;;;;;4927664;28;97236;-55
2021/04/18 13:18:37;;;;;;;4.13;2.60;;;17.50;79.70;;;;;;4935219;28;96673;-57